Terminal Aerodrome Forecast
Issued by NWS

Home | Current Version | Previous Version | Text Only | Print | Product List | Glossary On
Versions: 1 2 3 4 5 6 7 8 9 10 11 12 13 14 15 16 17 18 19 20 21
000
FTUS46 KSTO 271100
TAFSAC
TAF
KSAC 271139Z 2712/2812 33004KT P6SM OVC120
      TEMPO 2713/2717 4SM BR
     FM271800 18005KT P6SM VCSH SCT040 OVC080
     FM280300 VRB04KT P6SM BKN100
     FM280700 33004KT 4SM BR BKN150=

USA.gov is the U.S. government's official web portal to all federal, state and local government web resources and services.